sensor_id;sensor_type;location;lat;lon;timestamp;P1;durP1;ratioP1;P2;durP2;ratioP2
26824;SDS011;14402;48.178;11.566;2024-01-11T00:00:19;42.6;;;30.4;;
26824;SDS011;14402;48.178;11.566;2024-01-11T00:00:49;42.9;;;30.5;;
26824;SDS011;14402;48.178;11.566;2024-01-11T00:01:20;42.9;;;30.5;;
26824;SDS011;14402;48.178;11.566;2024-01-11T00:01:50;42.9;;;30.5;;
26824;SDS011;14402;48.178;11.566;2024-01-11T00:02:20;41.6;;;29.6;;
26824;SDS011;14402;48.178;11.566;2024-01-11T00:02:50;40.3;;;28.8;;
26824;SDS011;14402;48.178;11.566;2024-01-11T00:03:20;40.3;;;28.8;;
26824;SDS011;14402;48.178;11.566;2024-01-11T00:03:50;40.3;;;28.8;;
26824;SDS011;14402;48.178;11.566;2024-01-11T00:04:20;40.8;;;28.8;;
26824;SDS011;14402;48.178;11.566;2024-01-11T00:04:50;41.3;;;28.9;;
26824;SDS011;14402;48.178;11.566;2024-01-11T00:05:20;41.3;;;28.9;;
26824;SDS011;14402;48.178;11.566;2024-01-11T00:05:50;41.3;;;28.9;;
26824;SDS011;14402;48.178;11.566;2024-01-11T00:06:20;40.9;;;29.1;;
26824;SDS011;14402;48.178;11.566;2024-01-11T00:06:51;40.6;;;29.4;;
26824;SDS011;14402;48.178;11.566;2024-01-11T00:07:21;40.6;;;29.4;;
26824;SDS011;14402;48.178;11.566;2024-01-11T00:07:51;40.6;;;29.4;;
26824;SDS011;14402;48.178;11.566;2024-01-11T00:08:21;39.4;;;28.7;;
26824;SDS011;14402;48.178;11.566;2024-01-11T00:08:51;38.3;;;28.0;;
26824;SDS011;14402;48.178;11.566;2024-01-11T00:09:21;38.3;;;28.0;;
26824;SDS011;14402;48.178;11.566;2024-01-11T00:09:51;38.3;;;28.0;;
26824;SDS011;14402;48.178;11.566;2024-01-11T00:10:22;37.8;;;27.8;;
26824;SDS011;14402;48.178;11.566;2024-01-11T00:10:51;37.2;;;27.6;;
26824;SDS011;14402;48.178;11.566;2024-01-11T00:11:21;37.2;;;27.6;;
26824;SDS011;14402;48.178;11.566;2024-01-11T00:11:51;37.2;;;27.6;;
26824;SDS011;14402;48.178;11.566;2024-01-11T00:12:21;36.6;;;26.8;;
26824;SDS011;14402;48.178;11.566;2024-01-11T00:12:52;35.9;;;26.0;;
26824;SDS011;14402;48.178;11.566;2024-01-11T00:13:22;35.9;;;26.0;;
26824;SDS011;14402;48.178;11.566;2024-01-11T00:13:52;35.9;;;26.0;;
26824;SDS011;14402;48.178;11.566;2024-01-11T00:14:22;36.5;;;27.0;;
26824;SDS011;14402;48.178;11.566;2024-01-11T00:14:52;37.1;;;27.9;;
26824;SDS011;14402;48.178;11.566;2024-01-11T00:15:22;37.1;;;27.9;;
26824;SDS011;14402;48.178;11.566;2024-01-11T00:15:52;37.1;;;27.9;;
26824;SDS011;14402;48.178;11.566;2024-01-11T00:16:22;36.5;;;27.5;;
26824;SDS011;14402;48.178;11.566;2024-01-11T00:16:52;36.0;;;27.1;;
26824;SDS011;14402;48.178;11.566;2024-01-11T00:17:23;36.0;;;27.1;;
26824;SDS011;14402;48.178;11.566;2024-01-11T00:17:52;36.0;;;27.1;;
26824;SDS011;14402;48.178;11.566;2024-01-11T00:18:23;36.3;;;26.9;;
26824;SDS011;14402;48.178;11.566;2024-01-11T00:18:53;36.7;;;26.6;;
26824;SDS011;14402;48.178;11.566;2024-01-11T00:19:23;36.7;;;26.6;;
26824;SDS011;14402;48.178;11.566;2024-01-11T00:19:53;36.7;;;26.6;;
26824;SDS011;14402;48.178;11.566;2024-01-11T00:20:23;35.6;;;26.1;;
26824;SDS011;14402;48.178;11.566;2024-01-11T00:20:53;34.4;;;25.6;;
26824;SDS011;14402;48.178;11.566;2024-01-11T00:21:23;34.4;;;25.6;;
26824;SDS011;14402;48.178;11.566;2024-01-11T00:21:53;34.4;;;25.6;;
26824;SDS011;14402;48.178;11.566;2024-01-11T00:22:23;34.7;;;26.2;;
26824;SDS011;14402;48.178;11.566;2024-01-11T00:22:53;34.9;;;26.9;;
26824;SDS011;14402;48.178;11.566;2024-01-11T00:23:23;34.9;;;26.9;;
26824;SDS011;14402;48.178;11.566;2024-01-11T00:23:54;34.9;;;26.9;;
26824;SDS011;14402;48.178;11.566;2024-01-11T00:24:24;35.8;;;27.0;;
26824;SDS011;14402;48.178;11.566;2024-01-11T00:24:54;36.7;;;27.1;;
26824;SDS011;14402;48.178;11.566;2024-01-11T00:25:24;36.7;;;27.1;;
26824;SDS011;14402;48.178;11.566;2024-01-11T00:25:54;36.7;;;27.1;;
26824;SDS011;14402;48.178;11.566;2024-01-11T00:26:24;37.6;;;27.4;;
26824;SDS011;14402;48.178;11.566;2024-01-11T00:26:54;38.4;;;27.7;;
26824;SDS011;14402;48.178;11.566;2024-01-11T00:27:24;38.4;;;27.7;;
26824;SDS011;14402;48.178;11.566;2024-01-11T00:27:54;38.4;;;27.7;;
26824;SDS011;14402;48.178;11.566;2024-01-11T00:28:24;38.2;;;27.8;;
26824;SDS011;14402;48.178;11.566;2024-01-11T00:28:54;38.1;;;27.9;;
26824;SDS011;14402;48.178;11.566;2024-01-11T00:29:24;38.1;;;27.9;;
26824;SDS011;14402;48.178;11.566;2024-01-11T00:29:55;38.1;;;27.9;;
26824;SDS011;14402;48.178;11.566;2024-01-11T00:30:25;38.6;;;28.1;;
26824;SDS011;14402;48.178;11.566;2024-01-11T00:30:55;39.1;;;28.4;;
26824;SDS011;14402;48.178;11.566;2024-01-11T00:31:25;39.1;;;28.4;;
26824;SDS011;14402;48.178;11.566;2024-01-11T00:31:55;39.1;;;28.4;;
26824;SDS011;14402;48.178;11.566;2024-01-11T00:32:25;38.2;;;28.0;;
26824;SDS011;14402;48.178;11.566;2024-01-11T00:32:55;37.3;;;27.6;;
26824;SDS011;14402;48.178;11.566;2024-01-11T00:33:25;37.3;;;27.6;;
26824;SDS011;14402;48.178;11.566;2024-01-11T00:33:55;37.3;;;27.6;;
26824;SDS011;14402;48.178;11.566;2024-01-11T00:34:25;37.2;;;27.6;;
26824;SDS011;14402;48.178;11.566;2024-01-11T00:34:55;37.1;;;27.6;;
26824;SDS011;14402;48.178;11.566;2024-01-11T00:35:26;37.1;;;27.6;;
26824;SDS011;14402;48.178;11.566;2024-01-11T00:35:56;37.1;;;27.6;;
26824;SDS011;14402;48.178;11.566;2024-01-11T00:36:26;39.5;;;28.5;;
26824;SDS011;14402;48.178;11.566;2024-01-11T00:36:56;42.0;;;29.5;;
26824;SDS011;14402;48.178;11.566;2024-01-11T00:37:26;42.0;;;29.5;;
26824;SDS011;14402;48.178;11.566;2024-01-11T00:37:56;42.0;;;29.5;;
26824;SDS011;14402;48.178;11.566;2024-01-11T00:38:26;43.2;;;30.0;;
26824;SDS011;14402;48.178;11.566;2024-01-11T00:38:56;44.3;;;30.5;;
26824;SDS011;14402;48.178;11.566;2024-01-11T00:39:26;44.3;;;30.5;;
26824;SDS011;14402;48.178;11.566;2024-01-11T00:39:56;44.3;;;30.5;;
26824;SDS011;14402;48.178;11.566;2024-01-11T00:40:26;41.9;;;29.5;;
26824;SDS011;14402;48.178;11.566;2024-01-11T00:40:56;39.5;;;28.5;;
26824;SDS011;14402;48.178;11.566;2024-01-11T00:41:26;39.5;;;28.5;;
26824;SDS011;14402;48.178;11.566;2024-01-11T00:41:57;39.5;;;28.5;;
26824;SDS011;14402;48.178;11.566;2024-01-11T00:42:27;40.2;;;29.0;;
26824;SDS011;14402;48.178;11.566;2024-01-11T00:42:57;41.0;;;29.4;;
26824;SDS011;14402;48.178;11.566;2024-01-11T00:43:27;41.0;;;29.4;;
26824;SDS011;14402;48.178;11.566;2024-01-11T00:43:57;41.0;;;29.4;;
26824;SDS011;14402;48.178;11.566;2024-01-11T00:44:27;40.8;;;29.1;;
26824;SDS011;14402;48.178;11.566;2024-01-11T00:44:57;40.5;;;28.8;;
26824;SDS011;14402;48.178;11.566;2024-01-11T00:45:27;40.5;;;28.8;;
26824;SDS011;14402;48.178;11.566;2024-01-11T00:45:57;40.5;;;28.8;;
26824;SDS011;14402;48.178;11.566;2024-01-11T00:46:27;42.3;;;29.8;;
26824;SDS011;14402;48.178;11.566;2024-01-11T00:46:57;44.1;;;30.7;;
26824;SDS011;14402;48.178;11.566;2024-01-11T00:47:28;44.1;;;30.7;;
26824;SDS011;14402;48.178;11.566;2024-01-11T00:47:58;44.1;;;30.7;;
26824;SDS011;14402;48.178;11.566;2024-01-11T00:48:28;44.7;;;30.8;;
26824;SDS011;14402;48.178;11.566;2024-01-11T00:48:58;45.2;;;30.9;;
26824;SDS011;14402;48.178;11.566;2024-01-11T00:49:28;45.2;;;30.9;;
26824;SDS011;14402;48.178;11.566;2024-01-11T00:49:58;45.2;;;30.9;;
26824;SDS011;14402;48.178;11.566;2024-01-11T00:50:28;44.6;;;31.1;;
26824;SDS011;14402;48.178;11.566;2024-01-11T00:50:58;44.0;;;31.4;;
26824;SDS011;14402;48.178;11.566;2024-01-11T00:51:28;44.0;;;31.4;;
26824;SDS011;14402;48.178;11.566;2024-01-11T00:51:58;44.0;;;31.4;;
26824;SDS011;14402;48.178;11.566;2024-01-11T00:52:28;43.7;;;30.8;;
26824;SDS011;14402;48.178;11.566;2024-01-11T00:52:59;43.4;;;30.3;;
26824;SDS011;14402;48.178;11.566;2024-01-11T00:53:29;43.4;;;30.3;;
26824;SDS011;14402;48.178;11.566;2024-01-11T00:53:59;43.4;;;30.3;;
26824;SDS011;14402;48.178;11.566;2024-01-11T00:54:29;43.3;;;30.4;;
26824;SDS011;14402;48.178;11.566;2024-01-11T00:54:59;43.3;;;30.5;;
26824;SDS011;14402;48.178;11.566;2024-01-11T00:55:29;43.3;;;30.5;;
26824;SDS011;14402;48.178;11.566;2024-01-11T00:55:59;43.3;;;30.5;;
26824;SDS011;14402;48.178;11.566;2024-01-11T00:56:29;43.9;;;30.9;;
26824;SDS011;14402;48.178;11.566;2024-01-11T00:56:59;44.6;;;31.2;;
26824;SDS011;14402;48.178;11.566;2024-01-11T00:57:29;44.6;;;31.2;;
26824;SDS011;14402;48.178;11.566;2024-01-11T00:58:00;44.6;;;31.2;;
26824;SDS011;14402;48.178;11.566;2024-01-11T00:58:29;45.3;;;31.4;;
26824;SDS011;14402;48.178;11.566;2024-01-11T00:59:00;46.0;;;31.5;;
26824;SDS011;14402;48.178;11.566;2024-01-11T00:59:30;46.0;;;31.5;;
26824;SDS011;14402;48.178;11.566;2024-01-11T01:00:00;46.0;;;31.5;;
26824;SDS011;14402;48.178;11.566;2024-01-11T01:00:30;43.3;;;30.5;;
26824;SDS011;14402;48.178;11.566;2024-01-11T01:01:00;40.7;;;29.5;;
26824;SDS011;14402;48.178;11.566;2024-01-11T01:01:30;40.7;;;29.5;;
26824;SDS011;14402;48.178;11.566;2024-01-11T01:02:00;40.7;;;29.5;;
26824;SDS011;14402;48.178;11.566;2024-01-11T01:02:30;41.5;;;29.6;;
26824;SDS011;14402;48.178;11.566;2024-01-11T01:03:00;42.2;;;29.7;;
26824;SDS011;14402;48.178;11.566;2024-01-11T01:03:30;42.2;;;29.7;;
26824;SDS011;14402;48.178;11.566;2024-01-11T01:04:00;42.2;;;29.7;;
26824;SDS011;14402;48.178;11.566;2024-01-11T01:04:31;44.2;;;30.0;;
26824;SDS011;14402;48.178;11.566;2024-01-11T01:05:01;46.2;;;30.3;;
26824;SDS011;14402;48.178;11.566;2024-01-11T01:05:31;46.2;;;30.3;;
26824;SDS011;14402;48.178;11.566;2024-01-11T01:06:01;46.2;;;30.3;;
26824;SDS011;14402;48.178;11.566;2024-01-11T01:06:31;44.1;;;29.9;;
26824;SDS011;14402;48.178;11.566;2024-01-11T01:07:01;42.0;;;29.5;;
26824;SDS011;14402;48.178;11.566;2024-01-11T01:07:31;42.0;;;29.5;;
26824;SDS011;14402;48.178;11.566;2024-01-11T01:08:01;42.0;;;29.5;;
26824;SDS011;14402;48.178;11.566;2024-01-11T01:08:31;42.0;;;29.4;;
26824;SDS011;14402;48.178;11.566;2024-01-11T01:09:01;41.9;;;29.3;;
26824;SDS011;14402;48.178;11.566;2024-01-11T01:09:31;41.9;;;29.3;;
26824;SDS011;14402;48.178;11.566;2024-01-11T01:10:02;41.9;;;29.3;;
26824;SDS011;14402;48.178;11.566;2024-01-11T01:10:32;41.8;;;29.5;;
26824;SDS011;14402;48.178;11.566;2024-01-11T01:11:02;41.6;;;29.8;;
26824;SDS011;14402;48.178;11.566;2024-01-11T01:11:32;41.6;;;29.8;;
26824;SDS011;14402;48.178;11.566;2024-01-11T01:12:02;41.6;;;29.8;;
26824;SDS011;14402;48.178;11.566;2024-01-11T01:12:32;42.2;;;30.0;;
26824;SDS011;14402;48.178;11.566;2024-01-11T01:13:02;42.7;;;30.1;;
26824;SDS011;14402;48.178;11.566;2024-01-11T01:13:32;42.7;;;30.1;;
26824;SDS011;14402;48.178;11.566;2024-01-11T01:14:02;42.7;;;30.1;;
26824;SDS011;14402;48.178;11.566;2024-01-11T01:14:32;42.8;;;30.2;;
26824;SDS011;14402;48.178;11.566;2024-01-11T01:15:03;43.0;;;30.2;;
26824;SDS011;14402;48.178;11.566;2024-01-11T01:15:32;43.0;;;30.2;;
26824;SDS011;14402;48.178;11.566;2024-01-11T01:16:03;43.0;;;30.2;;
26824;SDS011;14402;48.178;11.566;2024-01-11T01:16:33;42.3;;;29.7;;
26824;SDS011;14402;48.178;11.566;2024-01-11T01:17:03;41.6;;;29.1;;
26824;SDS011;14402;48.178;11.566;2024-01-11T01:17:38;41.6;;;29.1;;
26824;SDS011;14402;48.178;11.566;2024-01-11T01:18:03;41.6;;;29.1;;
26824;SDS011;14402;48.178;11.566;2024-01-11T01:18:33;42.2;;;29.2;;
26824;SDS011;14402;48.178;11.566;2024-01-11T01:19:03;42.8;;;29.4;;
26824;SDS011;14402;48.178;11.566;2024-01-11T01:19:33;42.8;;;29.4;;
26824;SDS011;14402;48.178;11.566;2024-01-11T01:20:04;42.8;;;29.4;;
26824;SDS011;14402;48.178;11.566;2024-01-11T01:20:33;42.8;;;29.5;;
26824;SDS011;14402;48.178;11.566;2024-01-11T01:21:03;42.7;;;29.7;;
26824;SDS011;14402;48.178;11.566;2024-01-11T01:21:34;42.7;;;29.7;;
26824;SDS011;14402;48.178;11.566;2024-01-11T01:22:04;42.7;;;29.7;;
26824;SDS011;14402;48.178;11.566;2024-01-11T01:22:34;41.7;;;29.9;;
26824;SDS011;14402;48.178;11.566;2024-01-11T01:23:04;40.7;;;30.0;;
26824;SDS011;14402;48.178;11.566;2024-01-11T01:23:34;40.7;;;30.0;;
26824;SDS011;14402;48.178;11.566;2024-01-11T01:24:04;40.7;;;30.0;;
26824;SDS011;14402;48.178;11.566;2024-01-11T01:24:34;39.4;;;29.2;;
26824;SDS011;14402;48.178;11.566;2024-01-11T01:25:04;38.1;;;28.4;;
26824;SDS011;14402;48.178;11.566;2024-01-11T01:25:34;38.1;;;28.4;;
26824;SDS011;14402;48.178;11.566;2024-01-11T01:26:05;38.1;;;28.4;;
26824;SDS011;14402;48.178;11.566;2024-01-11T01:26:34;37.6;;;27.6;;
26824;SDS011;14402;48.178;11.566;2024-01-11T01:27:04;37.1;;;26.9;;
26824;SDS011;14402;48.178;11.566;2024-01-11T01:27:35;37.1;;;26.9;;
26824;SDS011;14402;48.178;11.566;2024-01-11T01:28:05;37.1;;;26.9;;
26824;SDS011;14402;48.178;11.566;2024-01-11T01:28:35;38.0;;;27.8;;
26824;SDS011;14402;48.178;11.566;2024-01-11T01:29:05;39.0;;;28.6;;
26824;SDS011;14402;48.178;11.566;2024-01-11T01:29:35;39.0;;;28.6;;
26824;SDS011;14402;48.178;11.566;2024-01-11T01:30:05;39.0;;;28.6;;
26824;SDS011;14402;48.178;11.566;2024-01-11T01:30:35;40.0;;;29.0;;
26824;SDS011;14402;48.178;11.566;2024-01-11T01:31:05;41.0;;;29.5;;
26824;SDS011;14402;48.178;11.566;2024-01-11T01:31:35;41.0;;;29.5;;
26824;SDS011;14402;48.178;11.566;2024-01-11T01:32:05;41.0;;;29.5;;
26824;SDS011;14402;48.178;11.566;2024-01-11T01:32:35;40.5;;;29.4;;
26824;SDS011;14402;48.178;11.566;2024-01-11T01:33:06;40.1;;;29.2;;
26824;SDS011;14402;48.178;11.566;2024-01-11T01:33:36;40.1;;;29.2;;
26824;SDS011;14402;48.178;11.566;2024-01-11T01:34:06;40.1;;;29.2;;
26824;SDS011;14402;48.178;11.566;2024-01-11T01:34:36;40.0;;;29.6;;
26824;SDS011;14402;48.178;11.566;2024-01-11T01:35:06;39.9;;;30.0;;
26824;SDS011;14402;48.178;11.566;2024-01-11T01:35:36;39.9;;;30.0;;
26824;SDS011;14402;48.178;11.566;2024-01-11T01:36:07;39.9;;;30.0;;
26824;SDS011;14402;48.178;11.566;2024-01-11T01:36:36;39.8;;;29.3;;
26824;SDS011;14402;48.178;11.566;2024-01-11T01:37:06;39.6;;;28.6;;
26824;SDS011;14402;48.178;11.566;2024-01-11T01:37:36;39.6;;;28.6;;
26824;SDS011;14402;48.178;11.566;2024-01-11T01:38:06;39.6;;;28.6;;
26824;SDS011;14402;48.178;11.566;2024-01-11T01:38:36;41.9;;;30.1;;
26824;SDS011;14402;48.178;11.566;2024-01-11T01:39:07;44.2;;;31.6;;
26824;SDS011;14402;48.178;11.566;2024-01-11T01:39:37;44.2;;;31.6;;
26824;SDS011;14402;48.178;11.566;2024-01-11T01:40:07;44.2;;;31.6;;
26824;SDS011;14402;48.178;11.566;2024-01-11T01:40:37;45.3;;;31.8;;
26824;SDS011;14402;48.178;11.566;2024-01-11T01:41:07;46.4;;;32.0;;
26824;SDS011;14402;48.178;11.566;2024-01-11T01:41:37;46.4;;;32.0;;
26824;SDS011;14402;48.178;11.566;2024-01-11T01:42:07;46.4;;;32.0;;
26824;SDS011;14402;48.178;11.566;2024-01-11T01:42:40;45.0;;;31.7;;
26824;SDS011;14402;48.178;11.566;2024-01-11T01:43:07;43.6;;;31.4;;
26824;SDS011;14402;48.178;11.566;2024-01-11T01:43:37;43.6;;;31.4;;
26824;SDS011;14402;48.178;11.566;2024-01-11T01:44:08;43.6;;;31.4;;
26824;SDS011;14402;48.178;11.566;2024-01-11T01:44:38;43.4;;;31.2;;
26824;SDS011;14402;48.178;11.566;2024-01-11T01:45:08;43.2;;;31.1;;
26824;SDS011;14402;48.178;11.566;2024-01-11T01:45:38;43.2;;;31.1;;
26824;SDS011;14402;48.178;11.566;2024-01-11T01:46:08;43.2;;;31.1;;
26824;SDS011;14402;48.178;11.566;2024-01-11T01:46:38;42.2;;;30.3;;
26824;SDS011;14402;48.178;11.566;2024-01-11T01:47:08;41.3;;;29.5;;
26824;SDS011;14402;48.178;11.566;2024-01-11T01:47:38;41.3;;;29.5;;
26824;SDS011;14402;48.178;11.566;2024-01-11T01:48:08;41.3;;;29.5;;
26824;SDS011;14402;48.178;11.566;2024-01-11T01:48:38;40.8;;;29.5;;
26824;SDS011;14402;48.178;11.566;2024-01-11T01:49:08;40.4;;;29.6;;
26824;SDS011;14402;48.178;11.566;2024-01-11T01:49:39;40.4;;;29.6;;
26824;SDS011;14402;48.178;11.566;2024-01-11T01:50:09;40.4;;;29.6;;
26824;SDS011;14402;48.178;11.566;2024-01-11T01:50:39;39.7;;;29.5;;
26824;SDS011;14402;48.178;11.566;2024-01-11T01:51:09;39.0;;;29.3;;
26824;SDS011;14402;48.178;11.566;2024-01-11T01:51:39;39.0;;;29.3;;
26824;SDS011;14402;48.178;11.566;2024-01-11T01:52:09;39.0;;;29.3;;
26824;SDS011;14402;48.178;11.566;2024-01-11T01:52:39;39.0;;;28.6;;
26824;SDS011;14402;48.178;11.566;2024-01-11T01:53:09;39.0;;;27.9;;
26824;SDS011;14402;48.178;11.566;2024-01-11T01:53:39;39.0;;;27.9;;
26824;SDS011;14402;48.178;11.566;2024-01-11T01:54:09;39.0;;;27.9;;
26824;SDS011;14402;48.178;11.566;2024-01-11T01:54:39;37.7;;;27.8;;
26824;SDS011;14402;48.178;11.566;2024-01-11T01:55:10;36.3;;;27.6;;
26824;SDS011;14402;48.178;11.566;2024-01-11T01:55:40;36.3;;;27.6;;
26824;SDS011;14402;48.178;11.566;2024-01-11T01:56:10;36.3;;;27.6;;
26824;SDS011;14402;48.178;11.566;2024-01-11T01:56:40;35.3;;;27.0;;
26824;SDS011;14402;48.178;11.566;2024-01-11T01:57:10;34.3;;;26.4;;
26824;SDS011;14402;48.178;11.566;2024-01-11T01:57:40;34.3;;;26.4;;
26824;SDS011;14402;48.178;11.566;2024-01-11T01:58:10;34.3;;;26.4;;
26824;SDS011;14402;48.178;11.566;2024-01-11T01:58:40;34.8;;;26.5;;
26824;SDS011;14402;48.178;11.566;2024-01-11T01:59:10;35.4;;;26.5;;
26824;SDS011;14402;48.178;11.566;2024-01-11T01:59:40;35.4;;;26.5;;
26824;SDS011;14402;48.178;11.566;2024-01-11T02:00:11;35.4;;;26.5;;
26824;SDS011;14402;48.178;11.566;2024-01-11T02:00:40;35.5;;;26.2;;
26824;SDS011;14402;48.178;11.566;2024-01-11T02:01:11;35.5;;;25.9;;
26824;SDS011;14402;48.178;11.566;2024-01-11T02:01:41;35.5;;;25.9;;
26824;SDS011;14402;48.178;11.566;2024-01-11T02:02:11;35.5;;;25.9;;
26824;SDS011;14402;48.178;11.566;2024-01-11T02:02:41;35.1;;;25.8;;
26824;SDS011;14402;48.178;11.566;2024-01-11T02:03:11;34.7;;;25.6;;
26824;SDS011;14402;48.178;11.566;2024-01-11T02:03:41;34.7;;;25.6;;
26824;SDS011;14402;48.178;11.566;2024-01-11T02:04:11;34.7;;;25.6;;
26824;SDS011;14402;48.178;11.566;2024-01-11T02:04:41;33.2;;;25.4;;
26824;SDS011;14402;48.178;11.566;2024-01-11T02:05:11;31.8;;;25.1;;
26824;SDS011;14402;48.178;11.566;2024-01-11T02:05:41;31.8;;;25.1;;
26824;SDS011;14402;48.178;11.566;2024-01-11T02:06:11;31.8;;;25.1;;
26824;SDS011;14402;48.178;11.566;2024-01-11T02:06:41;33.0;;;25.2;;
26824;SDS011;14402;48.178;11.566;2024-01-11T02:07:12;34.2;;;25.4;;
26824;SDS011;14402;48.178;11.566;2024-01-11T02:07:42;34.2;;;25.4;;
26824;SDS011;14402;48.178;11.566;2024-01-11T02:08:14;34.2;;;25.4;;
26824;SDS011;14402;48.178;11.566;2024-01-11T02:08:42;34.1;;;25.6;;
26824;SDS011;14402;48.178;11.566;2024-01-11T02:09:12;34.0;;;25.8;;
26824;SDS011;14402;48.178;11.566;2024-01-11T02:09:42;34.0;;;25.8;;
26824;SDS011;14402;48.178;11.566;2024-01-11T02:10:12;34.0;;;25.8;;
26824;SDS011;14402;48.178;11.566;2024-01-11T02:10:42;34.2;;;25.6;;
26824;SDS011;14402;48.178;11.566;2024-01-11T02:11:12;34.4;;;25.5;;
26824;SDS011;14402;48.178;11.566;2024-01-11T02:11:42;34.4;;;25.5;;
26824;SDS011;14402;48.178;11.566;2024-01-11T02:12:13;34.4;;;25.5;;
26824;SDS011;14402;48.178;11.566;2024-01-11T02:12:43;33.3;;;25.2;;
26824;SDS011;14402;48.178;11.566;2024-01-11T02:13:13;32.2;;;25.0;;
26824;SDS011;14402;48.178;11.566;2024-01-11T02:13:43;32.2;;;25.0;;
26824;SDS011;14402;48.178;11.566;2024-01-11T02:14:13;32.2;;;25.0;;
26824;SDS011;14402;48.178;11.566;2024-01-11T02:14:43;34.0;;;25.9;;
26824;SDS011;14402;48.178;11.566;2024-01-11T02:15:13;35.8;;;26.8;;
26824;SDS011;14402;48.178;11.566;2024-01-11T02:15:43;35.8;;;26.8;;
26824;SDS011;14402;48.178;11.566;2024-01-11T02:16:13;35.8;;;26.8;;
26824;SDS011;14402;48.178;11.566;2024-01-11T02:16:43;35.6;;;26.4;;
26824;SDS011;14402;48.178;11.566;2024-01-11T02:17:14;35.4;;;26.0;;
26824;SDS011;14402;48.178;11.566;2024-01-11T02:17:43;35.4;;;26.0;;
26824;SDS011;14402;48.178;11.566;2024-01-11T02:18:14;35.4;;;26.0;;
26824;SDS011;14402;48.178;11.566;2024-01-11T02:18:44;35.2;;;26.0;;
26824;SDS011;14402;48.178;11.566;2024-01-11T02:19:14;35.0;;;26.0;;
26824;SDS011;14402;48.178;11.566;2024-01-11T02:19:44;35.0;;;26.0;;
26824;SDS011;14402;48.178;11.566;2024-01-11T02:20:14;35.0;;;26.0;;
26824;SDS011;14402;48.178;11.566;2024-01-11T02:20:44;34.3;;;25.6;;
26824;SDS011;14402;48.178;11.566;2024-01-11T02:21:14;33.6;;;25.2;;
26824;SDS011;14402;48.178;11.566;2024-01-11T02:21:44;33.6;;;25.2;;
26824;SDS011;14402;48.178;11.566;2024-01-11T02:22:15;33.6;;;25.2;;
26824;SDS011;14402;48.178;11.566;2024-01-11T02:22:46;34.2;;;25.8;;
26824;SDS011;14402;48.178;11.566;2024-01-11T02:23:16;34.9;;;26.4;;
26824;SDS011;14402;48.178;11.566;2024-01-11T02:24:15;34.9;;;26.4;;
26824;SDS011;14402;48.178;11.566;2024-01-11T02:24:45;33.6;;;25.6;;
26824;SDS011;14402;48.178;11.566;2024-01-11T02:25:15;32.2;;;24.9;;
26824;SDS011;14402;48.178;11.566;2024-01-11T02:25:45;32.2;;;24.9;;
26824;SDS011;14402;48.178;11.566;2024-01-11T02:26:15;32.2;;;24.9;;
26824;SDS011;14402;48.178;11.566;2024-01-11T02:27:01;33.3;;;25.1;;
26824;SDS011;14402;48.178;11.566;2024-01-11T02:27:15;34.4;;;25.3;;
26824;SDS011;14402;48.178;11.566;2024-01-11T02:27:46;34.4;;;25.3;;
26824;SDS011;14402;48.178;11.566;2024-01-11T02:28:15;34.4;;;25.3;;
26824;SDS011;14402;48.178;11.566;2024-01-11T02:28:45;34.1;;;25.3;;
26824;SDS011;14402;48.178;11.566;2024-01-11T02:29:15;33.8;;;25.4;;
26824;SDS011;14402;48.178;11.566;2024-01-11T02:29:45;33.8;;;25.4;;
26824;SDS011;14402;48.178;11.566;2024-01-11T02:30:16;33.8;;;25.4;;
26824;SDS011;14402;48.178;11.566;2024-01-11T02:30:46;32.8;;;24.9;;
26824;SDS011;14402;48.178;11.566;2024-01-11T02:31:16;31.9;;;24.4;;
26824;SDS011;14402;48.178;11.566;2024-01-11T02:31:46;31.9;;;24.4;;
26824;SDS011;14402;48.178;11.566;2024-01-11T02:32:16;31.9;;;24.4;;
26824;SDS011;14402;48.178;11.566;2024-01-11T02:32:47;32.2;;;24.9;;
26824;SDS011;14402;48.178;11.566;2024-01-11T02:33:16;32.4;;;25.4;;
26824;SDS011;14402;48.178;11.566;2024-01-11T02:33:46;32.4;;;25.4;;
26824;SDS011;14402;48.178;11.566;2024-01-11T02:34:16;32.4;;;25.4;;
26824;SDS011;14402;48.178;11.566;2024-01-11T02:34:46;31.7;;;24.4;;
26824;SDS011;14402;48.178;11.566;2024-01-11T02:35:16;30.9;;;23.4;;
26824;SDS011;14402;48.178;11.566;2024-01-11T02:35:47;30.9;;;23.4;;
26824;SDS011;14402;48.178;11.566;2024-01-11T02:36:17;30.9;;;23.4;;
26824;SDS011;14402;48.178;11.566;2024-01-11T02:36:47;30.5;;;23.4;;
26824;SDS011;14402;48.178;11.566;2024-01-11T02:37:17;30.0;;;23.4;;
26824;SDS011;14402;48.178;11.566;2024-01-11T02:37:47;30.0;;;23.4;;
26824;SDS011;14402;48.178;11.566;2024-01-11T02:38:17;30.0;;;23.4;;
26824;SDS011;14402;48.178;11.566;2024-01-11T02:38:47;29.9;;;23.5;;
26824;SDS011;14402;48.178;11.566;2024-01-11T02:39:18;29.8;;;23.7;;
26824;SDS011;14402;48.178;11.566;2024-01-11T02:39:47;29.8;;;23.7;;
26824;SDS011;14402;48.178;11.566;2024-01-11T02:40:17;29.8;;;23.7;;
26824;SDS011;14402;48.178;11.566;2024-01-11T02:40:47;30.0;;;23.7;;
26824;SDS011;14402;48.178;11.566;2024-01-11T02:41:18;30.3;;;23.7;;
26824;SDS011;14402;48.178;11.566;2024-01-11T02:41:48;30.3;;;23.7;;
26824;SDS011;14402;48.178;11.566;2024-01-11T02:42:18;30.3;;;23.7;;
26824;SDS011;14402;48.178;11.566;2024-01-11T02:42:48;29.5;;;22.9;;
26824;SDS011;14402;48.178;11.566;2024-01-11T02:43:18;28.7;;;22.0;;
26824;SDS011;14402;48.178;11.566;2024-01-11T02:43:48;28.7;;;22.0;;
26824;SDS011;14402;48.178;11.566;2024-01-11T02:44:18;28.7;;;22.0;;
26824;SDS011;14402;48.178;11.566;2024-01-11T02:44:48;28.9;;;22.4;;
26824;SDS011;14402;48.178;11.566;2024-01-11T02:45:18;29.1;;;22.8;;
26824;SDS011;14402;48.178;11.566;2024-01-11T02:45:48;29.1;;;22.8;;
26824;SDS011;14402;48.178;11.566;2024-01-11T02:46:18;29.1;;;22.8;;
26824;SDS011;14402;48.178;11.566;2024-01-11T02:46:48;28.5;;;22.4;;
26824;SDS011;14402;48.178;11.566;2024-01-11T02:47:18;27.9;;;22.0;;
26824;SDS011;14402;48.178;11.566;2024-01-11T02:47:49;27.9;;;22.0;;
26824;SDS011;14402;48.178;11.566;2024-01-11T02:48:19;27.9;;;22.0;;
26824;SDS011;14402;48.178;11.566;2024-01-11T02:48:49;27.3;;;21.3;;
26824;SDS011;14402;48.178;11.566;2024-01-11T02:49:19;26.7;;;20.6;;
26824;SDS011;14402;48.178;11.566;2024-01-11T02:49:49;26.7;;;20.6;;
26824;SDS011;14402;48.178;11.566;2024-01-11T02:50:19;26.7;;;20.6;;
26824;SDS011;14402;48.178;11.566;2024-01-11T02:50:49;26.0;;;20.5;;
26824;SDS011;14402;48.178;11.566;2024-01-11T02:51:19;25.3;;;20.4;;
26824;SDS011;14402;48.178;11.566;2024-01-11T02:51:49;25.3;;;20.4;;
26824;SDS011;14402;48.178;11.566;2024-01-11T02:52:19;25.3;;;20.4;;
26824;SDS011;14402;48.178;11.566;2024-01-11T02:52:49;26.5;;;20.9;;
26824;SDS011;14402;48.178;11.566;2024-01-11T02:53:19;27.8;;;21.4;;
26824;SDS011;14402;48.178;11.566;2024-01-11T02:53:50;27.8;;;21.4;;
26824;SDS011;14402;48.178;11.566;2024-01-11T02:54:20;27.8;;;21.4;;
26824;SDS011;14402;48.178;11.566;2024-01-11T02:54:50;27.2;;;21.3;;
26824;SDS011;14402;48.178;11.566;2024-01-11T02:55:20;26.7;;;21.3;;
26824;SDS011;14402;48.178;11.566;2024-01-11T02:55:50;26.7;;;21.3;;
26824;SDS011;14402;48.178;11.566;2024-01-11T02:56:20;26.7;;;21.3;;
26824;SDS011;14402;48.178;11.566;2024-01-11T02:56:50;26.3;;;21.4;;
26824;SDS011;14402;48.178;11.566;2024-01-11T02:57:20;25.9;;;21.5;;
26824;SDS011;14402;48.178;11.566;2024-01-11T02:57:50;25.9;;;21.5;;
26824;SDS011;14402;48.178;11.566;2024-01-11T02:58:20;25.9;;;21.5;;
26824;SDS011;14402;48.178;11.566;2024-01-11T02:58:50;27.1;;;21.9;;